createdAt,value
2018-12-08T00:00:46.874Z,6.90
2018-12-08T00:03:14.313Z,7.00
2018-12-08T00:05:41.755Z,7.00
2018-12-08T00:08:09.191Z,7.00
2018-12-08T00:10:36.648Z,7.00
2018-12-08T00:13:04.083Z,7.00
2018-12-08T00:15:31.540Z,7.10
2018-12-08T00:17:59.049Z,7.10
2018-12-08T00:20:26.499Z,7.00
2018-12-08T00:22:53.944Z,7.10
2018-12-08T00:25:21.376Z,7.20
2018-12-08T00:27:48.827Z,7.30
2018-12-08T00:30:28.126Z,7.20
2018-12-08T00:32:55.639Z,7.10
2018-12-08T00:35:23.907Z,7.20
2018-12-08T00:37:51.351Z,7.10
2018-12-08T00:40:18.800Z,7.10
2018-12-08T00:42:46.259Z,7.10
2018-12-08T00:45:13.686Z,7.10
2018-12-08T00:47:41.646Z,7.10
2018-12-08T00:50:09.078Z,7.20
2018-12-08T00:52:36.695Z,7.10
2018-12-08T00:55:04.859Z,7.00
2018-12-08T00:57:32.378Z,6.90
2018-12-08T00:59:59.817Z,6.80
2018-12-08T01:02:27.268Z,6.70
2018-12-08T01:04:54.707Z,6.70
2018-12-08T01:07:22.163Z,6.60
2018-12-08T01:09:49.601Z,6.50
2018-12-08T01:12:17.041Z,6.50
2018-12-08T01:14:44.483Z,6.60
2018-12-08T01:17:11.928Z,6.70
2018-12-08T01:19:39.528Z,6.60
2018-12-08T01:22:07.246Z,6.70
2018-12-08T01:24:34.662Z,6.70
2018-12-08T01:27:02.121Z,6.70
2018-12-08T01:29:29.565Z,6.70
2018-12-08T01:31:57.526Z,6.80
2018-12-08T01:34:24.975Z,6.70
2018-12-08T01:36:52.421Z,6.80
2018-12-08T01:39:19.862Z,6.70
2018-12-08T01:41:47.310Z,6.80
2018-12-08T01:44:14.942Z,6.90
2018-12-08T01:46:42.483Z,6.90
2018-12-08T01:49:09.933Z,6.90
2018-12-08T01:51:37.371Z,6.90
2018-12-08T01:54:04.890Z,7.00
2018-12-08T01:56:33.148Z,7.10
2018-12-08T01:59:00.589Z,7.10
2018-12-08T02:01:28.031Z,7.00
2018-12-08T02:03:55.474Z,7.00
2018-12-08T02:06:22.907Z,7.00
2018-12-08T02:08:50.927Z,7.00
2018-12-08T02:11:24.902Z,7.00
2018-12-08T02:13:47.770Z,7.10
2018-12-08T02:16:15.211Z,7.20
2018-12-08T02:18:43.407Z,7.20
2018-12-08T02:21:10.867Z,7.20
2018-12-08T02:23:38.290Z,7.20
2018-12-08T02:26:05.729Z,7.20
2018-12-08T02:28:33.181Z,7.20
2018-12-08T02:31:01.074Z,7.10
2018-12-08T02:33:29.043Z,7.10
2018-12-08T02:35:56.485Z,7.00
2018-12-08T02:38:24.015Z,7.10
2018-12-08T02:40:51.467Z,7.00
2018-12-08T02:43:18.915Z,7.00
2018-12-08T02:45:46.458Z,7.00
2018-12-08T02:48:14.147Z,7.00
2018-12-08T02:50:41.583Z,7.00
2018-12-08T02:53:09.023Z,7.00
2018-12-08T02:55:36.470Z,6.90
2018-12-08T02:58:03.905Z,7.00
2018-12-08T03:00:31.942Z,7.00
2018-12-08T03:02:59.424Z,7.00
2018-12-08T03:05:26.865Z,7.10
2018-12-08T03:07:54.314Z,7.10
2018-12-08T03:10:21.806Z,7.10
2018-12-08T03:12:49.919Z,7.00
2018-12-08T03:15:17.352Z,7.10
2018-12-08T03:17:44.803Z,7.20
2018-12-08T03:20:12.257Z,7.30
2018-12-08T03:22:39.701Z,7.30
2018-12-08T03:25:07.143Z,7.20
2018-12-08T03:27:34.647Z,7.20
2018-12-08T03:30:02.741Z,7.20
2018-12-08T03:32:30.185Z,7.30
2018-12-08T03:34:57.723Z,7.30
2018-12-08T03:37:25.196Z,7.30
2018-12-08T03:39:52.634Z,7.30
2018-12-08T03:42:20.091Z,7.30
2018-12-08T03:44:47.534Z,7.30
2018-12-08T03:47:15.001Z,7.20
2018-12-08T03:49:42.430Z,7.30
2018-12-08T03:52:09.881Z,7.40
2018-12-08T03:54:37.333Z,7.40
2018-12-08T03:57:04.842Z,7.50
2018-12-08T03:59:32.275Z,7.50
2018-12-08T04:01:59.715Z,7.60
2018-12-08T04:04:27.168Z,7.60
2018-12-08T04:06:54.638Z,7.50
2018-12-08T04:09:22.799Z,7.60
2018-12-08T04:11:50.311Z,7.60
2018-12-08T04:14:17.933Z,7.60
2018-12-08T04:16:45.371Z,7.60
2018-12-08T04:19:12.831Z,7.70
2018-12-08T04:21:40.268Z,7.70
2018-12-08T04:24:07.702Z,7.70
2018-12-08T04:26:35.135Z,7.70
2018-12-08T04:29:02.588Z,7.80
2018-12-08T04:31:30.025Z,7.70
2018-12-08T04:33:57.530Z,7.80
2018-12-08T04:36:24.995Z,7.80
2018-12-08T04:38:52.544Z,7.80
2018-12-08T04:41:19.983Z,7.80
2018-12-08T04:43:47.432Z,7.60
2018-12-08T04:46:14.863Z,7.60
2018-12-08T04:48:42.311Z,7.60
2018-12-08T04:51:09.821Z,7.60
2018-12-08T04:53:37.278Z,7.60
2018-12-08T04:56:04.769Z,7.60
2018-12-08T04:58:32.246Z,7.60
2018-12-08T05:00:59.751Z,7.60
2018-12-08T05:03:27.188Z,7.60
2018-12-08T05:05:54.621Z,7.60
2018-12-08T05:08:22.066Z,7.60
2018-12-08T05:10:49.505Z,7.70
2018-12-08T05:13:16.943Z,7.60
2018-12-08T05:15:44.386Z,7.60
2018-12-08T05:18:11.826Z,7.60
2018-12-08T05:20:40.052Z,7.60
2018-12-08T05:23:07.487Z,7.60
2018-12-08T05:25:34.938Z,7.60
2018-12-08T05:28:02.460Z,7.60
2018-12-08T05:30:29.888Z,7.60
2018-12-08T05:32:57.319Z,7.60
2018-12-08T05:35:25.490Z,7.70
2018-12-08T05:37:52.927Z,7.70
2018-12-08T05:40:20.868Z,7.60
2018-12-08T05:42:48.308Z,7.60
2018-12-08T05:45:15.739Z,7.70
2018-12-08T05:47:43.198Z,7.80
2018-12-08T05:50:10.629Z,7.80
2018-12-08T05:52:38.093Z,7.70
2018-12-08T05:55:05.660Z,7.70
2018-12-08T05:57:33.109Z,7.80
2018-12-08T06:00:00.526Z,7.80
2018-12-08T06:02:27.976Z,7.80
2018-12-08T06:04:55.407Z,7.80
2018-12-08T06:07:22.851Z,7.70
2018-12-08T06:09:50.294Z,7.70
2018-12-08T06:12:17.738Z,7.70
2018-12-08T06:14:45.172Z,7.70
2018-12-08T06:17:12.623Z,7.60
2018-12-08T06:19:40.059Z,7.60
2018-12-08T06:22:07.519Z,7.60
2018-12-08T06:24:35.002Z,7.60
2018-12-08T06:27:02.676Z,7.60
2018-12-08T06:29:30.131Z,7.60
2018-12-08T06:31:57.586Z,7.60
2018-12-08T06:34:25.050Z,7.60
2018-12-08T06:36:52.549Z,7.50
2018-12-08T06:39:19.999Z,7.60
2018-12-08T06:41:47.450Z,7.50
2018-12-08T06:44:15.402Z,7.50
2018-12-08T06:46:42.833Z,7.60
2018-12-08T06:49:10.303Z,7.60
2018-12-08T06:51:39.146Z,7.50
2018-12-08T06:54:06.612Z,7.50
2018-12-08T06:56:34.039Z,7.60
2018-12-08T06:59:01.483Z,7.60
2018-12-08T07:01:28.919Z,7.70
2018-12-08T07:03:56.372Z,7.60
2018-12-08T07:06:23.808Z,7.50
2018-12-08T07:08:51.253Z,7.50
2018-12-08T07:11:18.687Z,7.50
2018-12-08T07:13:46.125Z,7.50
2018-12-08T07:16:13.593Z,7.60
2018-12-08T07:18:41.050Z,7.60
2018-12-08T07:21:08.482Z,7.60
2018-12-08T07:23:35.995Z,7.60
2018-12-08T07:26:03.504Z,7.50
2018-12-08T07:28:31.884Z,7.50
2018-12-08T07:31:01.263Z,7.30
2018-12-08T07:33:29.667Z,7.30
2018-12-08T07:35:57.373Z,7.20
2018-12-08T07:38:25.572Z,7.00
2018-12-08T07:40:53.065Z,7.00
2018-12-08T07:43:20.503Z,7.00
2018-12-08T07:45:47.956Z,7.00
2018-12-08T07:48:16.255Z,7.00
2018-12-08T07:50:43.914Z,7.00
2018-12-08T07:53:11.503Z,7.10
2018-12-08T07:55:38.949Z,7.20
2018-12-08T07:58:06.468Z,7.30
2018-12-08T08:00:33.914Z,7.30
2018-12-08T08:03:01.370Z,7.30
2018-12-08T08:05:28.827Z,7.40
2018-12-08T08:07:56.532Z,7.40
2018-12-08T08:10:24.035Z,7.30
2018-12-08T08:12:51.775Z,7.40
2018-12-08T08:15:19.222Z,7.40
2018-12-08T08:17:46.994Z,7.50
2018-12-08T08:20:14.710Z,7.50
2018-12-08T08:22:42.201Z,7.50
2018-12-08T08:25:09.664Z,7.60
2018-12-08T08:27:37.103Z,7.60
2018-12-08T08:30:06.758Z,7.70
2018-12-08T08:32:34.194Z,7.70
2018-12-08T08:35:01.711Z,7.80
2018-12-08T08:37:29.166Z,7.80
2018-12-08T08:39:57.123Z,7.90
2018-12-08T08:42:24.594Z,7.90
2018-12-08T08:44:52.044Z,7.90
2018-12-08T08:47:19.479Z,7.90
2018-12-08T08:49:46.933Z,7.90
2018-12-08T08:52:14.383Z,7.90
2018-12-08T08:54:41.822Z,8.00
2018-12-08T08:57:11.231Z,8.00
2018-12-08T08:59:38.705Z,8.10
2018-12-08T09:02:06.315Z,8.10
2018-12-08T09:04:33.755Z,8.10
2018-12-08T09:07:01.410Z,8.10
2018-12-08T09:09:29.175Z,8.20
2018-12-08T09:11:56.771Z,8.20
2018-12-08T09:14:24.458Z,8.20
2018-12-08T09:16:52.045Z,8.10
2018-12-08T09:19:19.468Z,8.10
2018-12-08T09:21:46.942Z,8.10
2018-12-08T09:24:14.460Z,8.20
2018-12-08T09:26:42.354Z,8.20
2018-12-08T09:29:09.884Z,8.40
2018-12-08T09:31:37.336Z,8.50
2018-12-08T09:34:04.836Z,8.60
2018-12-08T09:36:32.367Z,8.60
2018-12-08T09:38:59.827Z,8.60
2018-12-08T09:41:27.297Z,8.60
2018-12-08T09:43:54.930Z,8.60
2018-12-08T09:46:22.598Z,8.50
2018-12-08T09:48:50.103Z,8.40
2018-12-08T09:51:17.577Z,8.30
2018-12-08T09:53:45.070Z,8.20
2018-12-08T09:56:12.515Z,8.20
2018-12-08T09:58:39.969Z,8.20
2018-12-08T10:01:07.407Z,8.30
2018-12-08T10:03:34.863Z,8.40
2018-12-08T10:06:02.425Z,8.50
2018-12-08T10:08:29.998Z,8.50
2018-12-08T10:10:57.438Z,8.50
2018-12-08T10:13:24.905Z,8.50
2018-12-08T10:15:52.408Z,8.60
2018-12-08T10:18:19.903Z,8.60
2018-12-08T10:20:47.396Z,8.60
2018-12-08T10:23:16.033Z,8.50
2018-12-08T10:25:43.541Z,8.50
2018-12-08T10:28:11.048Z,8.50
2018-12-08T10:30:38.508Z,8.50
2018-12-08T10:33:06.037Z,8.60
2018-12-08T10:35:34.627Z,8.70
2018-12-08T10:38:02.185Z,8.80
2018-12-08T10:40:29.625Z,8.80
2018-12-08T10:43:00.072Z,8.90
2018-12-08T10:45:27.547Z,9.00
2018-12-08T10:47:58.382Z,9.20
2018-12-08T10:50:25.949Z,9.10
2018-12-08T10:52:53.676Z,9.20
2018-12-08T10:55:22.999Z,9.20
2018-12-08T10:57:50.442Z,9.30
2018-12-08T11:00:23.647Z,9.30
2018-12-08T11:02:52.347Z,9.30
2018-12-08T11:05:19.851Z,9.40
2018-12-08T11:07:47.307Z,9.50
2018-12-08T11:10:14.758Z,9.60
2018-12-08T11:12:42.207Z,9.60
2018-12-08T11:15:11.541Z,9.60
2018-12-08T11:17:39.015Z,9.70
2018-12-08T11:20:06.817Z,9.70
2018-12-08T11:22:34.280Z,9.70
2018-12-08T11:25:02.594Z,9.80
2018-12-08T11:27:30.110Z,9.80
2018-12-08T11:29:57.580Z,9.80
2018-12-08T11:32:25.673Z,9.80
2018-12-08T11:34:53.159Z,9.70
2018-12-08T11:37:20.616Z,9.80
2018-12-08T11:39:48.138Z,9.80
2018-12-08T11:42:15.668Z,9.80
2018-12-08T11:44:43.855Z,9.80
2018-12-08T11:47:11.348Z,9.80
2018-12-08T11:49:38.799Z,9.80
2018-12-08T11:52:06.245Z,9.70
2018-12-08T11:54:34.023Z,9.60
2018-12-08T11:57:01.491Z,9.50
2018-12-08T11:59:28.928Z,9.40
2018-12-08T12:01:56.390Z,9.30
2018-12-08T12:04:23.827Z,9.40
2018-12-08T12:06:51.287Z,9.40
2018-12-08T12:09:18.730Z,9.40
2018-12-08T12:11:46.191Z,9.50
2018-12-08T12:14:13.647Z,9.50
2018-12-08T12:16:42.709Z,9.60
2018-12-08T12:19:10.158Z,9.60
2018-12-08T12:21:37.615Z,9.40
2018-12-08T12:24:07.276Z,9.40
2018-12-08T12:26:37.174Z,9.50
2018-12-08T12:29:08.244Z,9.40
2018-12-08T12:31:36.983Z,9.40
2018-12-08T12:34:09.725Z,9.20
2018-12-08T12:36:39.948Z,9.20
2018-12-08T12:39:09.717Z,9.20
2018-12-08T12:41:37.840Z,9.30
2018-12-08T12:44:06.508Z,9.30
2018-12-08T12:46:37.827Z,9.30
2018-12-08T12:49:07.959Z,9.40
2018-12-08T12:51:37.713Z,9.40
2018-12-08T12:54:05.280Z,9.40
2018-12-08T12:56:32.737Z,9.40
2018-12-08T12:59:00.187Z,9.30
2018-12-08T13:01:27.649Z,9.30
2018-12-08T13:03:55.497Z,9.40
2018-12-08T13:06:23.019Z,9.50
2018-12-08T13:08:50.610Z,9.60
2018-12-08T13:11:18.075Z,9.70
2018-12-08T13:13:45.522Z,9.70
2018-12-08T13:16:12.975Z,9.70
2018-12-08T13:18:40.420Z,9.80
2018-12-08T13:21:08.813Z,9.90
2018-12-08T13:23:40.923Z,9.90
2018-12-08T13:26:09.227Z,9.80
2018-12-08T13:28:41.476Z,9.80
2018-12-08T13:31:09.019Z,9.90
2018-12-08T13:33:40.104Z,9.90
2018-12-08T13:36:14.575Z,9.90
2018-12-08T13:38:43.811Z,9.90
2018-12-08T13:41:12.900Z,10.00
2018-12-08T13:43:47.633Z,10.00
2018-12-08T13:46:19.460Z,10.00
2018-12-08T13:48:49.920Z,10.00
2018-12-08T13:53:58.525Z,10.10
2018-12-08T13:56:28.202Z,10.00
2018-12-08T13:58:57.326Z,10.10
2018-12-08T14:01:27.305Z,10.10
2018-12-08T14:03:55.773Z,10.10
2018-12-08T14:06:24.508Z,10.10
2018-12-08T14:08:52.982Z,10.10
2018-12-08T14:11:25.980Z,10.10
2018-12-08T14:13:54.515Z,10.10
2018-12-08T14:16:22.613Z,10.20
2018-12-08T14:18:51.785Z,10.20
2018-12-08T14:21:22.337Z,10.20
2018-12-08T14:23:51.958Z,10.10
2018-12-08T14:26:22.288Z,10.10
2018-12-08T14:28:49.877Z,10.10
2018-12-08T14:31:18.064Z,10.10
2018-12-08T14:33:49.367Z,10.10
2018-12-08T14:36:18.062Z,10.20
2018-12-08T14:38:57.481Z,10.10
2018-12-08T14:41:23.361Z,10.20
2018-12-08T14:43:54.571Z,10.20
2018-12-08T14:46:22.666Z,10.10
2018-12-08T14:48:50.786Z,10.10
2018-12-08T14:51:18.866Z,10.20
2018-12-08T14:56:19.765Z,10.20
2018-12-08T14:58:48.329Z,10.10
2018-12-08T15:01:21.854Z,10.00
2018-12-08T15:03:52.612Z,10.10
2018-12-08T15:06:20.099Z,10.10
2018-12-08T15:08:47.626Z,10.10
2018-12-08T15:11:15.138Z,10.10
2018-12-08T15:13:42.632Z,10.10
2018-12-08T15:16:11.067Z,10.20
2018-12-08T15:18:41.430Z,10.20
2018-12-08T15:21:10.184Z,10.10
2018-12-08T15:23:38.724Z,10.20
2018-12-08T15:26:08.115Z,10.20
2018-12-08T15:28:38.275Z,10.20
2018-12-08T15:31:07.379Z,10.10
2018-12-08T15:33:38.636Z,10.20
2018-12-08T15:36:07.409Z,10.20
2018-12-08T15:38:36.129Z,10.10
2018-12-08T15:41:05.527Z,10.20
2018-12-08T15:43:35.872Z,10.20
2018-12-08T15:46:04.691Z,10.30
2018-12-08T15:48:33.961Z,10.20
2018-12-08T15:51:03.939Z,10.20
2018-12-08T15:53:33.224Z,10.20
2018-12-08T15:56:02.403Z,10.30
2018-12-08T15:58:31.141Z,10.20
2018-12-08T16:01:02.506Z,10.20
2018-12-08T16:03:32.033Z,10.20
2018-12-08T16:06:03.807Z,10.30
2018-12-08T16:08:31.719Z,10.30
2018-12-08T16:11:02.833Z,10.40
2018-12-08T16:13:31.932Z,10.50
2018-12-08T16:16:01.509Z,10.50
2018-12-08T16:18:31.291Z,10.50
2018-12-08T16:21:01.082Z,10.50
2018-12-08T16:23:31.446Z,10.50
2018-12-08T16:26:00.792Z,10.50
2018-12-08T16:31:11.062Z,10.60
2018-12-08T16:33:43.594Z,10.60
2018-12-08T16:36:15.560Z,10.60
2018-12-08T16:38:43.799Z,10.50
2018-12-08T16:41:13.445Z,10.30
2018-12-08T16:43:42.161Z,10.30
2018-12-08T16:46:11.880Z,10.30
2018-12-08T16:48:42.024Z,10.20
2018-12-08T16:51:13.073Z,10.20
2018-12-08T16:53:47.567Z,10.20
2018-12-08T16:56:18.121Z,10.20
2018-12-08T16:58:46.178Z,10.20
2018-12-08T17:01:19.679Z,10.30
2018-12-08T17:03:52.226Z,10.40
2018-12-08T17:06:25.542Z,10.20
2018-12-08T17:08:58.607Z,10.10
2018-12-08T17:11:27.152Z,10.00
2018-12-08T17:13:55.311Z,9.90
2018-12-08T17:16:24.145Z,9.90
2018-12-08T17:18:58.574Z,9.80
2018-12-08T17:21:26.981Z,9.80
2018-12-08T17:23:54.488Z,9.80
2018-12-08T17:26:22.074Z,9.70
2018-12-08T17:28:49.571Z,9.60
2018-12-08T17:31:17.032Z,9.50
2018-12-08T17:33:44.510Z,9.40
2018-12-08T17:36:11.977Z,9.40
2018-12-08T17:38:39.444Z,9.50
2018-12-08T17:41:06.900Z,9.50
2018-12-08T17:43:37.311Z,9.50
2018-12-08T17:46:06.403Z,9.50
2018-12-08T17:48:33.950Z,9.60
2018-12-08T17:51:01.403Z,9.60
2018-12-08T17:53:28.847Z,9.60
2018-12-08T17:55:56.311Z,9.60
2018-12-08T17:58:23.747Z,9.60
2018-12-08T18:00:51.250Z,9.70
2018-12-08T18:03:18.690Z,9.70
2018-12-08T18:05:46.159Z,9.80
2018-12-08T18:08:13.602Z,9.80
2018-12-08T18:10:41.121Z,9.90
2018-12-08T18:13:08.571Z,9.90
2018-12-08T18:15:36.035Z,9.90
2018-12-08T18:18:03.579Z,9.90
2018-12-08T18:20:31.043Z,9.80
2018-12-08T18:22:58.468Z,9.80
2018-12-08T18:25:25.970Z,9.80
2018-12-08T18:27:53.438Z,9.80
2018-12-08T18:30:20.875Z,9.80
2018-12-08T18:32:48.327Z,9.70
2018-12-08T18:35:15.843Z,9.70
2018-12-08T18:37:43.354Z,9.70
2018-12-08T18:40:10.795Z,9.70
2018-12-08T18:42:38.248Z,9.70
2018-12-08T18:45:05.803Z,9.70
2018-12-08T18:47:33.395Z,9.80
2018-12-08T18:50:01.520Z,9.80
2018-12-08T18:52:28.976Z,9.60
2018-12-08T18:54:56.419Z,9.60
2018-12-08T18:57:23.876Z,9.60
2018-12-08T18:59:51.331Z,9.50
2018-12-08T19:02:18.778Z,9.40
2018-12-08T19:04:46.227Z,9.40
2018-12-08T19:07:13.673Z,9.40
2018-12-08T19:09:41.129Z,9.40
2018-12-08T19:12:08.838Z,9.50
2018-12-08T19:14:36.290Z,9.50
2018-12-08T19:17:03.750Z,9.60
2018-12-08T19:19:31.215Z,9.60
2018-12-08T19:21:58.650Z,9.50
2018-12-08T19:24:26.104Z,9.50
2018-12-08T19:26:53.539Z,9.60
2018-12-08T19:29:21.010Z,9.50
2018-12-08T19:31:48.447Z,9.50
2018-12-08T19:34:16.714Z,9.50
2018-12-08T19:36:44.184Z,9.60
2018-12-08T19:39:11.625Z,9.70
2018-12-08T19:41:39.096Z,9.80
2018-12-08T19:44:06.540Z,9.90
2018-12-08T19:46:33.990Z,9.90
2018-12-08T19:49:01.429Z,9.90
2018-12-08T19:51:44.719Z,9.90
2018-12-08T19:54:12.539Z,10.00
2018-12-08T19:56:39.990Z,10.10
2018-12-08T19:59:07.450Z,10.10
2018-12-08T20:01:34.900Z,10.00
2018-12-08T20:04:02.342Z,10.00
2018-12-08T20:06:29.804Z,9.90
2018-12-08T20:08:57.237Z,9.90
2018-12-08T20:11:24.685Z,9.90
2018-12-08T20:13:52.135Z,9.70
2018-12-08T20:16:19.597Z,9.60
2018-12-08T20:18:47.044Z,9.40
2018-12-08T20:21:14.497Z,9.40
2018-12-08T20:23:41.927Z,9.30
2018-12-08T20:26:09.381Z,9.40
2018-12-08T20:28:36.819Z,9.40
2018-12-08T20:31:04.279Z,9.40
2018-12-08T20:33:31.739Z,9.40
2018-12-08T20:35:59.235Z,9.60
2018-12-08T20:38:27.099Z,9.70
2018-12-08T20:40:55.655Z,9.70
2018-12-08T20:43:23.139Z,9.70
2018-12-08T20:45:50.854Z,9.90
2018-12-08T20:48:18.333Z,10.00
2018-12-08T20:50:45.778Z,9.90
2018-12-08T20:53:15.091Z,10.00
2018-12-08T20:55:42.705Z,10.20
2018-12-08T20:58:12.148Z,10.40
2018-12-08T21:00:39.588Z,10.30
2018-12-08T21:03:07.853Z,10.30
2018-12-08T21:05:35.562Z,10.50
2018-12-08T21:08:03.447Z,10.50
2018-12-08T21:10:31.138Z,10.40
2018-12-08T21:12:58.598Z,10.50
2018-12-08T21:15:26.833Z,10.50
2018-12-08T21:17:55.019Z,10.60
2018-12-08T21:20:22.462Z,10.60
2018-12-08T21:22:52.021Z,10.50
2018-12-08T21:25:20.566Z,10.40
2018-12-08T21:27:48.028Z,10.30
2018-12-08T21:30:15.475Z,10.30
2018-12-08T21:32:42.933Z,10.30
2018-12-08T21:35:10.732Z,10.30
2018-12-08T21:37:39.174Z,10.30
2018-12-08T21:40:13.317Z,10.30
2018-12-08T21:42:40.775Z,10.20
2018-12-08T21:45:08.226Z,10.40
2018-12-08T21:47:35.959Z,10.30
2018-12-08T21:50:05.610Z,10.20
2018-12-08T21:52:34.015Z,10.40
2018-12-08T21:55:03.231Z,10.30
2018-12-08T21:57:30.721Z,10.20
2018-12-08T21:59:58.194Z,10.30
2018-12-08T22:02:26.750Z,10.20
2018-12-08T22:04:56.470Z,10.20
2018-12-08T22:07:24.693Z,10.30
2018-12-08T22:09:52.171Z,10.20
2018-12-08T22:12:19.614Z,10.20
2018-12-08T22:14:52.776Z,10.40
2018-12-08T22:17:20.227Z,10.60
2018-12-08T22:19:47.699Z,10.60
2018-12-08T22:22:15.146Z,10.70
2018-12-08T22:24:43.931Z,10.70
2018-12-08T22:27:11.414Z,10.70
2018-12-08T22:29:38.868Z,10.70
2018-12-08T22:32:06.384Z,10.80
2018-12-08T22:34:33.851Z,10.70
2018-12-08T22:37:01.311Z,10.70
2018-12-08T22:39:28.760Z,10.70
2018-12-08T22:41:56.221Z,10.60
2018-12-08T22:44:23.696Z,10.80
2018-12-08T22:46:52.259Z,10.80
2018-12-08T22:49:19.706Z,10.90
2018-12-08T22:51:49.366Z,10.90
2018-12-08T22:54:20.572Z,10.90
2018-12-08T22:56:53.608Z,10.80
2018-12-08T22:59:22.589Z,10.80
2018-12-08T23:01:54.167Z,10.90
2018-12-08T23:04:21.673Z,10.80
2018-12-08T23:07:01.107Z,10.80
2018-12-08T23:09:28.579Z,10.90
2018-12-08T23:11:56.285Z,10.80
2018-12-08T23:14:23.998Z,10.90
2018-12-08T23:16:51.579Z,10.80
2018-12-08T23:19:19.031Z,10.70
2018-12-08T23:21:46.558Z,10.30
2018-12-08T23:24:14.182Z,10.00
2018-12-08T23:26:41.691Z,9.40
2018-12-08T23:29:09.138Z,8.60
2018-12-08T23:31:36.662Z,8.60
2018-12-08T23:34:04.166Z,8.80
2018-12-08T23:36:31.602Z,8.70
2018-12-08T23:38:59.079Z,8.90
2018-12-08T23:41:26.521Z,8.70
2018-12-08T23:43:54.071Z,8.30
2018-12-08T23:46:22.833Z,7.70
2018-12-08T23:48:50.315Z,7.40
2018-12-08T23:51:18.607Z,7.30
2018-12-08T23:53:46.599Z,7.40
2018-12-08T23:56:14.048Z,7.40
2018-12-08T23:58:41.483Z,7.20
